createdAt,value
2023-02-19T00:28:26.447Z,28.83
2023-02-19T00:29:26.473Z,29.87
2023-02-19T00:30:26.550Z,25.93
2023-02-19T00:31:26.630Z,29.45
2023-02-19T00:32:26.565Z,25.93
2023-02-19T00:33:26.590Z,27.14
2023-02-19T00:34:26.621Z,28.79
2023-02-19T00:35:26.650Z,27.10
2023-02-19T00:36:26.671Z,28.64
2023-02-19T00:37:26.704Z,27.05
2023-02-19T00:38:26.740Z,27.40
2023-02-19T00:39:26.777Z,27.98
2023-02-19T00:40:26.800Z,29.06
2023-02-19T00:41:26.828Z,26.78
2023-02-19T00:42:26.855Z,28.08
2023-02-19T00:43:26.880Z,26.61
2023-02-19T00:44:26.911Z,27.28
2023-02-19T00:45:26.945Z,27.33
2023-02-19T00:46:27.021Z,27.83
2023-02-19T00:47:27.000Z,27.26
2023-02-19T00:48:27.023Z,27.20
2023-02-19T00:49:27.061Z,25.26
2023-02-19T00:50:27.085Z,28.43
2023-02-19T00:51:27.122Z,29.17
2023-02-19T00:52:27.159Z,26.56
2023-02-19T00:53:27.176Z,28.62
2023-02-19T00:54:27.233Z,27.91
2023-02-19T00:55:27.233Z,31.29
2023-02-19T00:56:27.266Z,26.88
2023-02-19T00:57:27.299Z,29.64
2023-02-19T00:58:27.329Z,27.10
2023-02-19T00:59:27.346Z,28.00
2023-02-19T01:00:27.377Z,25.62
2023-02-19T01:01:27.452Z,25.49
2023-02-19T01:02:27.442Z,26.22
2023-02-19T01:03:27.475Z,29.67
2023-02-19T01:04:27.511Z,30.44
2023-02-19T01:05:27.532Z,29.07
2023-02-19T01:06:27.558Z,28.78
2023-02-19T01:07:27.591Z,27.76
2023-02-19T01:08:27.624Z,28.65
2023-02-19T01:09:27.654Z,28.46
2023-02-19T01:10:27.690Z,29.90
2023-02-19T01:11:27.734Z,28.68
2023-02-19T01:12:27.738Z,28.43
2023-02-19T01:13:27.765Z,26.77
2023-02-19T01:14:27.798Z,29.73
2023-02-19T01:15:27.832Z,29.29
2023-02-19T01:16:27.945Z,27.87
2023-02-19T01:17:27.915Z,30.17
2023-02-19T01:18:27.915Z,29.41
2023-02-19T01:19:27.957Z,27.35
2023-02-19T01:20:27.979Z,29.08
2023-02-19T01:21:28.030Z,26.83
2023-02-19T01:22:28.060Z,27.33
2023-02-19T01:23:28.083Z,29.18
2023-02-19T01:24:28.110Z,27.91
2023-02-19T01:25:28.128Z,28.24
2023-02-19T01:26:28.162Z,27.45
2023-02-19T01:27:28.200Z,28.42
2023-02-19T01:28:28.230Z,28.70
2023-02-19T01:29:28.273Z,28.85
2023-02-19T01:30:28.312Z,30.12
2023-02-19T01:31:28.413Z,27.88
2023-02-19T01:32:28.371Z,28.45
2023-02-19T01:33:28.394Z,28.48
2023-02-19T01:34:28.427Z,29.91
2023-02-19T01:35:28.457Z,29.49
2023-02-19T01:36:28.525Z,28.83
2023-02-19T01:37:28.521Z,28.58
2023-02-19T01:38:28.550Z,28.21
2023-02-19T01:39:28.568Z,27.70
2023-02-19T01:40:28.594Z,28.39
2023-02-19T01:41:28.638Z,28.07
2023-02-19T01:42:28.644Z,27.48
2023-02-19T01:43:28.681Z,27.44
2023-02-19T01:44:29.408Z,30.31
2023-02-19T01:45:28.732Z,27.29
2023-02-19T01:46:28.806Z,27.54
2023-02-19T01:47:28.789Z,27.88
2023-02-19T01:48:28.824Z,26.33
2023-02-19T01:49:28.852Z,27.74
2023-02-19T01:50:28.879Z,27.68
2023-02-19T01:51:28.939Z,26.78
2023-02-19T01:52:28.937Z,28.28
2023-02-19T01:53:28.969Z,27.18
2023-02-19T01:54:29.004Z,30.49
2023-02-19T01:55:29.023Z,27.95
2023-02-19T01:56:29.060Z,30.86
2023-02-19T01:57:29.086Z,28.77
2023-02-19T01:58:29.113Z,27.18
2023-02-19T01:59:29.143Z,27.90
2023-02-19T02:00:29.215Z,27.87
2023-02-19T02:01:29.196Z,26.06
2023-02-19T02:02:29.237Z,28.91
2023-02-19T02:03:29.255Z,30.39
2023-02-19T02:04:29.295Z,29.15
2023-02-19T02:05:29.309Z,28.34
2023-02-19T02:06:29.336Z,28.94
2023-02-19T02:07:29.376Z,27.97
2023-02-19T02:08:29.408Z,30.77
2023-02-19T02:09:29.426Z,27.12
2023-02-19T02:10:29.450Z,28.40
2023-02-19T02:11:29.489Z,30.06
2023-02-19T02:12:29.518Z,28.19
2023-02-19T02:13:29.551Z,27.53
2023-02-19T02:14:29.589Z,29.18
2023-02-19T02:15:29.606Z,28.26
2023-02-19T02:16:29.724Z,28.89
2023-02-19T02:17:29.678Z,30.03
2023-02-19T02:18:29.702Z,26.53
2023-02-19T02:19:29.742Z,30.97
2023-02-19T02:20:29.774Z,27.79
2023-02-19T02:21:29.822Z,28.93
2023-02-19T02:22:29.837Z,28.52
2023-02-19T02:23:29.876Z,26.98
2023-02-19T02:24:29.897Z,27.22
2023-02-19T02:25:29.930Z,27.50
2023-02-19T02:26:29.971Z,27.28
2023-02-19T02:27:29.987Z,27.82
2023-02-19T02:28:30.026Z,31.68
2023-02-19T02:29:30.047Z,27.38
2023-02-19T02:30:30.194Z,27.91
2023-02-19T02:31:30.188Z,27.06
2023-02-19T02:32:30.123Z,29.90
2023-02-19T02:33:30.170Z,27.60
2023-02-19T02:34:30.185Z,28.63
2023-02-19T02:35:30.218Z,28.75
2023-02-19T02:36:30.243Z,26.71
2023-02-19T02:37:30.284Z,29.31
2023-02-19T02:38:30.302Z,27.27
2023-02-19T02:39:30.337Z,26.39
2023-02-19T02:40:30.367Z,29.11
2023-02-19T02:41:30.388Z,29.16
2023-02-19T02:42:30.435Z,27.05
2023-02-19T02:43:30.470Z,27.98
2023-02-19T02:44:30.497Z,27.88
2023-02-19T02:45:30.571Z,26.22
2023-02-19T02:46:30.563Z,30.15
2023-02-19T02:47:30.606Z,29.60
2023-02-19T02:48:30.621Z,29.52
2023-02-19T02:49:30.658Z,27.81
2023-02-19T02:50:30.692Z,29.00
2023-02-19T02:51:30.736Z,27.91
2023-02-19T02:52:30.777Z,29.82
2023-02-19T02:53:30.797Z,30.36
2023-02-19T02:54:30.824Z,28.57
2023-02-19T02:55:30.865Z,27.36
2023-02-19T02:56:30.882Z,29.33
2023-02-19T02:57:30.919Z,29.64
2023-02-19T02:58:30.961Z,28.67
2023-02-19T02:59:30.993Z,27.10
2023-02-19T03:00:31.028Z,30.12
2023-02-19T03:01:31.052Z,28.73
2023-02-19T03:02:31.174Z,27.75
2023-02-19T03:03:31.125Z,29.54
2023-02-19T03:04:31.157Z,27.85
2023-02-19T03:05:31.187Z,29.25
2023-02-19T03:06:31.219Z,29.22
2023-02-19T03:07:31.245Z,26.79
2023-02-19T03:08:31.273Z,28.10
2023-02-19T03:09:31.308Z,27.77
2023-02-19T03:10:31.353Z,27.86
2023-02-19T03:11:31.368Z,29.10
2023-02-19T03:12:31.414Z,28.20
2023-02-19T03:13:31.438Z,29.22
2023-02-19T03:14:31.462Z,26.99
2023-02-19T03:15:31.497Z,27.64
2023-02-19T03:16:31.567Z,27.57
2023-02-19T03:17:31.557Z,27.20
2023-02-19T03:18:31.593Z,28.35
2023-02-19T03:19:31.629Z,29.03
2023-02-19T03:20:31.671Z,27.99
2023-02-19T03:21:31.698Z,29.32
2023-02-19T03:22:31.726Z,27.78
2023-02-19T03:23:31.765Z,28.79
2023-02-19T03:24:31.795Z,25.00
2023-02-19T03:25:31.823Z,30.83
2023-02-19T03:26:31.867Z,26.97
2023-02-19T03:27:31.892Z,25.85
2023-02-19T03:28:31.935Z,28.25
2023-02-19T03:29:31.968Z,28.23
2023-02-19T03:30:32.057Z,30.83
2023-02-19T03:31:32.106Z,28.61
2023-02-19T03:32:32.060Z,29.26
2023-02-19T03:33:32.101Z,29.91
2023-02-19T03:34:32.142Z,27.35
2023-02-19T03:35:32.187Z,27.83
2023-02-19T03:36:32.225Z,28.01
2023-02-19T03:37:32.264Z,27.64
2023-02-19T03:38:32.284Z,28.28
2023-02-19T03:39:32.310Z,29.03
2023-02-19T03:40:32.358Z,26.88
2023-02-19T03:41:32.397Z,30.79
2023-02-19T03:42:32.440Z,27.62
2023-02-19T03:43:32.407Z,27.89
2023-02-19T03:44:32.413Z,28.15
2023-02-19T03:45:32.439Z,28.63
2023-02-19T03:46:32.357Z,28.19
2023-02-19T03:47:32.328Z,29.59
2023-02-19T03:48:32.328Z,28.88
2023-02-19T03:49:32.295Z,27.81
2023-02-19T03:50:32.281Z,28.78
2023-02-19T03:51:32.264Z,29.77
2023-02-19T03:52:32.270Z,29.23
2023-02-19T03:53:32.306Z,27.94
2023-02-19T03:54:32.328Z,30.53
2023-02-19T03:55:32.378Z,29.41
2023-02-19T03:56:32.415Z,31.45
2023-02-19T03:57:32.448Z,28.75
2023-02-19T03:58:32.487Z,28.08
2023-02-19T03:59:32.522Z,29.56
2023-02-19T04:00:32.562Z,29.54
2023-02-19T04:01:32.590Z,28.88
2023-02-19T04:02:32.656Z,26.98
2023-02-19T04:03:32.673Z,28.20
2023-02-19T06:16:37.852Z,27.00
2023-02-19T06:17:37.921Z,28.37
2023-02-19T06:18:37.959Z,32.82
2023-02-19T06:19:37.983Z,29.59
2023-02-19T06:20:38.034Z,29.69
2023-02-19T06:21:38.081Z,27.14
2023-02-19T06:22:38.106Z,30.57
2023-02-19T06:23:38.161Z,28.70
2023-02-19T06:24:38.201Z,28.15
2023-02-19T06:25:38.231Z,32.90
2023-02-19T06:26:38.284Z,32.02
2023-02-19T06:27:38.310Z,31.70
2023-02-19T06:28:38.365Z,28.02
2023-02-19T06:29:38.414Z,27.67
2023-02-19T06:30:38.437Z,26.30
2023-02-19T06:31:38.570Z,30.90
2023-02-19T06:32:38.536Z,29.67
2023-02-19T06:33:38.586Z,28.48
2023-02-19T06:34:38.624Z,27.25
2023-02-19T06:35:38.654Z,31.31
2023-02-19T06:36:38.698Z,30.01
2023-02-19T06:37:38.745Z,29.33
2023-02-19T06:38:38.801Z,29.28
2023-02-19T06:39:38.856Z,29.98
2023-02-19T06:40:38.896Z,31.85
2023-02-19T06:41:38.951Z,31.57
2023-02-19T06:42:38.994Z,30.75
2023-02-19T06:43:39.055Z,30.01
2023-02-19T06:44:39.090Z,30.50
2023-02-19T06:45:39.125Z,31.11
2023-02-19T06:46:39.302Z,29.05
2023-02-19T06:47:39.208Z,30.62
2023-02-19T06:48:39.257Z,31.69
2023-02-19T06:49:39.310Z,29.43
2023-02-19T06:50:39.351Z,29.35
2023-02-19T06:51:39.406Z,29.54
2023-02-19T06:52:39.440Z,29.77
2023-02-19T06:53:39.490Z,31.62
2023-02-19T06:54:39.533Z,32.51
2023-02-19T06:55:39.582Z,28.21
2023-02-19T06:56:39.635Z,32.22
2023-02-19T06:57:39.702Z,29.76
2023-02-19T06:58:39.754Z,30.61
2023-02-19T06:59:39.788Z,31.20
2023-02-19T07:00:39.892Z,30.69
2023-02-19T07:01:39.891Z,28.56
2023-02-19T07:02:39.939Z,27.66
2023-02-19T07:03:39.998Z,31.19
2023-02-19T07:04:40.053Z,29.94
2023-02-19T07:05:40.088Z,29.00
2023-02-19T07:06:40.151Z,31.58
2023-02-19T07:07:40.201Z,29.00
2023-02-19T07:08:40.247Z,31.14
2023-02-19T07:09:40.284Z,31.33
2023-02-19T07:10:40.339Z,31.77
2023-02-19T07:11:40.399Z,30.03
2023-02-19T07:12:40.430Z,32.35
2023-02-19T07:13:40.477Z,31.43
2023-02-19T07:14:40.520Z,29.03
2023-02-19T07:15:40.558Z,28.14
2023-02-19T07:16:40.622Z,30.52
2023-02-19T07:17:40.643Z,31.15
2023-02-19T07:18:40.703Z,31.94
2023-02-19T09:51:47.834Z,37.19
2023-02-19T09:52:47.880Z,39.09
2023-02-19T09:53:47.932Z,37.22
2023-02-19T09:54:47.974Z,38.11
2023-02-19T09:55:48.027Z,38.22
2023-02-19T09:56:48.061Z,37.27
2023-02-19T09:57:48.104Z,38.25
2023-02-19T09:58:48.150Z,38.66
2023-02-19T09:59:48.213Z,38.54
2023-02-19T10:00:48.258Z,39.24
2023-02-19T10:01:48.330Z,38.14
2023-02-19T10:02:48.362Z,39.42
2023-02-19T10:03:48.420Z,32.51
2023-02-19T10:04:48.493Z,37.55
2023-02-19T10:05:48.521Z,38.08
2023-02-19T10:06:48.574Z,37.32
2023-02-19T10:07:48.629Z,38.84
2023-02-19T10:08:48.670Z,39.51
2023-02-19T10:09:48.718Z,39.90
2023-02-19T10:10:48.780Z,38.11
2023-02-19T10:11:48.843Z,36.35
2023-02-19T10:12:48.867Z,37.42
2023-02-19T10:13:48.923Z,35.45
2023-02-19T10:14:48.970Z,36.64
2023-02-19T10:15:49.057Z,37.26
2023-02-19T10:16:49.073Z,38.26
2023-02-19T10:17:49.131Z,35.53
2023-02-19T10:18:49.152Z,37.44
2023-02-19T10:19:49.202Z,37.97
2023-02-19T10:20:49.235Z,38.18
2023-02-19T10:21:49.297Z,36.73
2023-02-19T10:22:49.346Z,38.34
2023-02-19T10:23:49.392Z,38.45
2023-02-19T10:24:49.431Z,39.01
2023-02-19T10:25:49.481Z,39.24
2023-02-19T10:26:49.555Z,39.40
2023-02-19T10:27:49.607Z,35.90
2023-02-19T10:28:49.643Z,37.79
2023-02-19T10:29:49.689Z,38.74
2023-02-19T10:30:49.795Z,38.75
2023-02-19T10:31:49.861Z,39.25
2023-02-19T10:32:49.826Z,37.58
2023-02-19T10:33:49.884Z,36.61
2023-02-19T10:34:49.931Z,38.70
2023-02-19T10:35:49.949Z,36.81
2023-02-19T10:36:50.005Z,35.29
2023-02-19T10:37:50.034Z,37.55
2023-02-19T10:38:50.084Z,36.83
2023-02-19T10:39:50.140Z,37.80
2023-02-19T10:40:50.181Z,36.61
2023-02-19T10:41:50.216Z,37.00
2023-02-19T10:42:50.281Z,35.41
2023-02-19T10:43:50.334Z,38.11
2023-02-19T10:44:50.350Z,38.10
2023-02-19T10:45:50.417Z,35.95
2023-02-19T10:46:50.454Z,38.51
2023-02-19T10:47:50.496Z,38.50
2023-02-19T10:48:50.535Z,39.19
2023-02-19T10:49:50.586Z,37.14
2023-02-19T10:50:50.630Z,36.54
2023-02-19T10:51:50.673Z,36.95
2023-02-19T10:52:50.739Z,39.45
2023-02-19T10:53:50.747Z,37.27
2023-02-19T10:54:50.800Z,37.79
2023-02-19T10:55:50.842Z,36.59
2023-02-19T10:56:50.924Z,36.70
2023-02-19T10:57:50.940Z,36.48
2023-02-19T10:58:50.985Z,38.97
2023-02-19T10:59:51.040Z,39.49
2023-02-19T13:44:58.731Z,34.08
2023-02-19T13:45:57.918Z,35.50
2023-02-19T13:46:57.883Z,32.70
2023-02-19T13:47:57.927Z,33.79
2023-02-19T13:48:57.941Z,31.04
2023-02-19T13:49:58.098Z,31.31
2023-02-19T13:50:58.015Z,34.31
2023-02-19T13:51:58.058Z,31.89
2023-02-19T13:52:58.082Z,31.63
2023-02-19T13:53:58.122Z,31.57
2023-02-19T13:54:58.165Z,33.22
2023-02-19T13:55:58.199Z,33.61
2023-02-19T13:56:58.255Z,35.83
2023-02-19T13:57:58.273Z,30.99
2023-02-19T13:58:58.309Z,29.54
2023-02-19T13:59:58.351Z,35.02
2023-02-19T14:00:58.390Z,31.40
2023-02-19T14:01:58.420Z,31.60
2023-02-19T14:02:58.462Z,34.37
2023-02-19T14:03:58.497Z,33.42
2023-02-19T14:04:58.471Z,33.63
2023-02-19T14:05:58.457Z,33.83
2023-02-19T14:06:58.450Z,33.43
2023-02-19T14:07:58.429Z,32.60
2023-02-19T14:08:58.415Z,28.05
2023-02-19T14:09:58.400Z,33.86
2023-02-19T14:10:58.396Z,34.54
2023-02-19T14:11:58.378Z,32.36
2023-02-19T14:12:58.355Z,32.91
2023-02-19T14:13:58.472Z,27.95
2023-02-19T14:14:58.389Z,31.93
2023-02-19T14:15:58.438Z,31.13
2023-02-19T14:16:58.469Z,32.05
2023-02-19T14:17:58.508Z,31.14
2023-02-19T14:18:58.557Z,29.73
2023-02-19T14:19:58.599Z,33.90
2023-02-19T14:20:58.634Z,28.58
2023-02-19T14:21:58.655Z,32.35
2023-02-19T14:22:58.702Z,30.80
2023-02-19T14:23:58.744Z,30.68
2023-02-19T14:24:58.782Z,27.43
2023-02-19T14:25:58.832Z,31.46
2023-02-19T14:26:58.862Z,32.08
2023-02-19T14:27:58.911Z,31.34
2023-02-19T14:28:58.936Z,30.62
2023-02-19T14:29:58.984Z,31.24
2023-02-19T14:30:59.062Z,30.31
2023-02-19T14:31:59.195Z,33.94
2023-02-19T14:33:10.117Z,27.28
2023-02-19T14:34:00.104Z,27.73
2023-02-19T14:34:59.089Z,28.12
2023-02-19T14:35:59.056Z,29.42
2023-02-19T14:37:01.070Z,32.12
2023-02-19T14:37:59.028Z,33.06
2023-02-19T14:38:59.017Z,28.72
2023-02-19T14:39:59.006Z,30.91
2023-02-19T14:40:59.000Z,28.18
2023-02-19T14:41:59.049Z,32.41
2023-02-19T14:43:01.072Z,29.97
2023-02-19T14:43:59.112Z,32.03
2023-02-19T14:44:59.156Z,32.72
2023-02-19T14:45:59.236Z,31.52
2023-02-19T14:46:59.245Z,31.83
2023-02-19T14:47:59.260Z,31.63
2023-02-19T14:48:59.305Z,34.99
2023-02-19T14:49:59.356Z,31.75
2023-02-19T14:50:59.406Z,31.75
2023-02-19T14:51:59.453Z,29.58
2023-02-19T14:52:59.488Z,30.39
2023-02-19T14:53:59.524Z,30.93
2023-02-19T14:54:59.566Z,31.23
2023-02-19T14:55:59.588Z,31.73
2023-02-19T14:56:59.630Z,31.70
2023-02-19T14:57:59.678Z,31.05
2023-02-19T14:58:59.723Z,32.10
2023-02-19T14:59:59.750Z,29.55
2023-02-19T15:00:59.789Z,31.80
2023-02-19T15:01:59.826Z,31.59
2023-02-19T15:02:59.884Z,31.42
2023-02-19T15:03:59.894Z,28.86
2023-02-19T15:04:59.995Z,27.90
2023-02-19T15:05:59.999Z,29.55
2023-02-19T15:07:00.021Z,27.14
2023-02-19T15:08:00.089Z,28.96
2023-02-19T15:09:00.125Z,29.73
2023-02-19T15:28:00.903Z,30.01
2023-02-19T15:29:00.927Z,33.21
2023-02-19T15:30:01.275Z,28.18
2023-02-19T15:31:01.028Z,31.32
2023-02-19T15:32:01.767Z,32.90
2023-02-19T15:33:01.069Z,28.72
2023-02-19T15:34:01.104Z,27.35
2023-02-19T15:35:01.161Z,29.57
2023-02-19T15:36:01.184Z,28.40
2023-02-19T15:37:01.229Z,28.87
2023-02-19T15:38:01.268Z,31.19
2023-02-19T15:39:01.329Z,30.87
2023-02-19T15:40:01.357Z,28.63
2023-02-19T15:41:01.390Z,28.97
2023-02-19T15:42:01.432Z,32.70
2023-02-19T15:43:01.480Z,25.69
2023-02-19T15:44:01.516Z,26.90
2023-02-19T15:45:01.557Z,29.23
2023-02-19T15:46:01.592Z,30.29
2023-02-19T15:47:01.627Z,29.71
2023-02-19T15:48:01.655Z,28.67
2023-02-19T15:49:01.707Z,28.37
2023-02-19T15:50:01.798Z,29.34
2023-02-19T15:51:01.759Z,28.81
2023-02-19T15:52:01.791Z,28.44
2023-02-19T15:53:01.839Z,32.14
2023-02-19T15:54:01.936Z,30.17
2023-02-19T15:55:01.922Z,30.53
2023-02-19T15:56:02.912Z,30.70
2023-02-19T15:57:01.892Z,30.56
2023-02-19T15:58:01.881Z,31.25
2023-02-19T15:59:01.862Z,28.99
2023-02-19T16:00:01.965Z,33.13
2023-02-19T16:01:01.830Z,30.29
2023-02-19T16:02:01.879Z,28.80
2023-02-19T16:03:01.829Z,28.19
2023-02-19T16:04:02.567Z,27.48
2023-02-19T16:05:01.781Z,28.41
2023-02-19T16:06:01.796Z,29.04
2023-02-19T16:07:01.829Z,26.97
2023-02-19T16:08:02.647Z,28.47
2023-02-19T16:09:01.907Z,28.27
2023-02-19T16:10:01.921Z,29.37
2023-02-19T16:11:01.982Z,30.08
2023-02-19T16:12:01.991Z,31.76
2023-02-19T16:13:02.016Z,29.05
2023-02-19T16:14:02.065Z,31.43
2023-02-19T16:15:02.099Z,30.60
2023-02-19T16:16:02.168Z,29.66
2023-02-19T16:17:02.186Z,29.16
2023-02-19T16:18:02.205Z,28.49
2023-02-19T16:19:02.294Z,30.99
2023-02-19T16:20:02.310Z,26.68
2023-02-19T16:21:02.322Z,26.25
2023-02-19T16:22:02.351Z,29.39
2023-02-19T16:23:02.392Z,31.15
2023-02-19T16:24:02.420Z,28.89
2023-02-19T16:25:03.174Z,31.26
2023-02-19T16:26:03.075Z,28.85
2023-02-19T16:27:02.514Z,31.37
2023-02-19T16:28:02.558Z,28.58
2023-02-19T16:29:03.075Z,32.36
2023-02-19T16:30:02.687Z,31.07
2023-02-19T16:31:02.668Z,31.90
2023-02-19T16:32:02.881Z,31.10
2023-02-19T16:33:02.743Z,30.08
2023-02-19T16:34:02.778Z,28.45
2023-02-19T16:35:02.844Z,31.78
2023-02-19T16:36:03.655Z,28.88
2023-02-19T16:37:02.872Z,25.06
2023-02-19T16:38:02.918Z,27.73
2023-02-19T16:39:02.947Z,29.78
2023-02-19T16:40:02.972Z,30.67
2023-02-19T16:41:03.010Z,28.41
2023-02-19T16:42:03.043Z,29.34
2023-02-19T16:43:03.086Z,29.87
2023-02-19T16:44:03.140Z,29.86
2023-02-19T16:45:03.179Z,29.17
2023-02-19T16:46:03.265Z,32.41
2023-02-19T16:47:03.243Z,30.21
2023-02-19T16:48:03.273Z,28.15
2023-02-19T16:49:03.315Z,31.05
2023-02-19T16:50:03.388Z,31.28
2023-02-19T16:51:03.421Z,31.58
2023-02-19T16:52:04.549Z,30.36
2023-02-19T16:53:03.499Z,30.22
2023-02-19T16:54:03.536Z,29.85
2023-02-19T16:55:03.567Z,27.46
2023-02-19T16:56:03.611Z,31.83
2023-02-19T16:57:03.650Z,27.50
2023-02-19T16:58:03.693Z,28.37
2023-02-19T16:59:03.725Z,27.70
2023-02-19T17:00:03.765Z,26.85
2023-02-19T17:01:03.881Z,29.43
2023-02-19T17:02:03.860Z,27.58
2023-02-19T17:03:03.888Z,32.26
2023-02-19T17:04:03.987Z,27.63
2023-02-19T17:05:03.961Z,27.39
2023-02-19T17:06:04.004Z,28.28
2023-02-19T17:07:04.034Z,27.29
2023-02-19T17:08:04.070Z,28.11
2023-02-19T17:09:04.109Z,26.16
2023-02-19T18:39:07.849Z,27.08
2023-02-19T18:40:07.869Z,31.42
2023-02-19T18:41:07.911Z,29.52
2023-02-19T18:42:07.977Z,28.12
2023-02-19T18:43:08.005Z,28.29
2023-02-19T18:44:08.046Z,28.01
2023-02-19T18:45:08.065Z,26.55
2023-02-19T18:46:08.147Z,28.33
2023-02-19T18:47:08.135Z,29.51
2023-02-19T18:48:08.183Z,29.10
2023-02-19T18:49:08.212Z,29.02
2023-02-19T18:50:08.257Z,32.50
2023-02-19T18:51:08.299Z,27.29
2023-02-19T18:52:08.324Z,27.18
2023-02-19T18:53:08.351Z,27.30
2023-02-19T18:54:08.378Z,27.88
2023-02-19T18:55:08.412Z,26.34
2023-02-19T18:56:08.461Z,26.60
2023-02-19T18:57:08.504Z,27.34
2023-02-19T18:58:08.562Z,27.79
2023-02-19T18:59:08.570Z,28.97
2023-02-19T19:00:08.611Z,25.79
2023-02-19T19:01:08.697Z,30.71
2023-02-19T19:02:08.689Z,30.32
2023-02-19T19:03:08.709Z,29.55
2023-02-19T19:04:08.773Z,27.69
2023-02-19T19:05:08.772Z,27.87
2023-02-19T19:06:08.813Z,29.23
2023-02-19T19:07:08.850Z,28.83
2023-02-19T19:08:08.874Z,27.12
2023-02-19T19:09:08.914Z,29.38
2023-02-19T19:10:08.956Z,27.97
2023-02-19T19:11:09.191Z,28.51
2023-02-19T19:12:09.074Z,26.90
2023-02-19T19:13:09.116Z,28.22
2023-02-19T19:14:09.135Z,28.20
2023-02-19T19:15:09.151Z,28.65
2023-02-19T19:16:09.219Z,28.64
2023-02-19T19:17:09.229Z,28.99
2023-02-19T19:18:09.266Z,27.12
2023-02-19T19:19:09.297Z,29.56
2023-02-19T19:20:09.346Z,28.57
2023-02-19T19:21:09.494Z,28.54
2023-02-19T19:22:09.400Z,27.92
2023-02-19T19:23:09.435Z,27.39
2023-02-19T19:24:09.467Z,27.75
2023-02-19T19:25:09.519Z,29.39
2023-02-19T19:26:09.803Z,30.11
2023-02-19T19:27:09.563Z,27.63
2023-02-19T19:28:09.606Z,27.72
2023-02-19T19:29:09.640Z,27.59
2023-02-19T19:30:09.719Z,28.80
2023-02-19T19:31:09.757Z,25.99
2023-02-19T19:32:10.870Z,27.90
2023-02-19T19:33:09.791Z,27.06
2023-02-19T19:34:09.826Z,25.15
2023-02-19T19:35:09.887Z,30.23
2023-02-19T19:36:09.905Z,28.98
2023-02-19T19:37:09.961Z,29.37
2023-02-19T19:38:09.975Z,25.42
2023-02-19T19:39:10.010Z,25.00
2023-02-19T19:40:10.054Z,29.22
2023-02-19T19:41:11.209Z,29.45
2023-02-19T19:42:10.025Z,30.00
2023-02-19T19:43:09.989Z,29.86
2023-02-19T19:44:09.981Z,30.51
2023-02-19T19:45:09.958Z,31.83
2023-02-19T19:46:09.950Z,30.47
2023-02-19T19:47:09.916Z,27.60
2023-02-19T19:48:09.907Z,29.41
2023-02-19T19:49:09.882Z,29.62
2023-02-19T19:50:09.868Z,28.31
2023-02-19T19:51:10.046Z,30.28
2023-02-19T19:52:09.897Z,29.75
2023-02-19T19:53:09.932Z,28.47
2023-02-19T19:54:09.980Z,26.62
2023-02-19T19:55:10.011Z,26.04
2023-02-19T19:56:10.064Z,28.69
2023-02-19T19:57:10.068Z,27.52
2023-02-19T19:58:10.110Z,26.18
2023-02-19T19:59:10.137Z,29.07
2023-02-19T20:00:10.182Z,30.09
2023-02-19T20:01:10.740Z,27.84
2023-02-19T20:02:10.261Z,29.22
2023-02-19T20:03:10.300Z,27.65
2023-02-19T20:04:10.330Z,28.91
2023-02-19T20:05:10.374Z,27.01
2023-02-19T20:06:10.421Z,29.65
2023-02-19T20:07:10.440Z,29.20
2023-02-19T20:08:10.471Z,29.81
2023-02-19T20:09:10.516Z,28.44
2023-02-19T20:10:10.532Z,27.38
2023-02-19T20:11:10.898Z,28.30
2023-02-19T20:12:10.609Z,28.77
2023-02-19T20:13:10.622Z,26.56
2023-02-19T20:14:10.664Z,28.15
2023-02-19T20:15:10.696Z,27.72
2023-02-19T20:16:10.763Z,27.12
2023-02-19T20:17:10.777Z,25.37
2023-02-19T20:18:10.820Z,28.07
2023-02-19T20:19:10.854Z,25.00
2023-02-19T20:20:10.879Z,30.20
2023-02-19T20:21:11.213Z,26.82
2023-02-19T20:22:10.976Z,30.53
2023-02-19T20:23:11.022Z,28.35
2023-02-19T20:24:12.636Z,29.07
2023-02-19T20:25:11.109Z,29.11
2023-02-19T20:26:11.175Z,29.64
2023-02-19T20:27:11.175Z,30.31
2023-02-19T20:28:11.218Z,31.05
2023-02-19T20:29:11.254Z,29.47
2023-02-19T20:30:11.583Z,28.57
2023-02-19T20:31:11.694Z,31.35
2023-02-19T20:32:11.465Z,29.86
2023-02-19T20:34:11.467Z,28.69
2023-02-19T20:35:11.501Z,26.26
2023-02-19T20:36:11.543Z,29.60
2023-02-19T20:37:11.548Z,29.90
2023-02-19T20:38:11.591Z,29.87
2023-02-19T20:39:11.625Z,27.95
2023-02-19T20:40:11.670Z,28.48
2023-02-19T20:41:12.129Z,25.55
2023-02-19T20:42:16.442Z,30.08
2023-02-19T20:43:12.734Z,30.25
2023-02-19T20:44:11.719Z,30.22
2023-02-19T20:45:11.700Z,29.06
2023-02-19T20:46:12.052Z,30.68
2023-02-19T20:47:11.689Z,30.92
2023-02-19T20:48:11.674Z,29.02
2023-02-19T20:49:11.661Z,29.26
2023-02-19T20:50:11.666Z,28.60
2023-02-19T20:51:11.676Z,30.68
2023-02-19T20:52:11.639Z,30.53
2023-02-19T20:53:11.648Z,29.17
2023-02-19T20:54:11.678Z,29.16
2023-02-19T20:55:11.722Z,29.10
2023-02-19T20:56:12.151Z,29.58
2023-02-19T20:57:11.799Z,27.45
2023-02-19T20:58:11.831Z,28.15
2023-02-19T20:59:11.879Z,28.13
2023-02-19T23:28:17.797Z,29.01
2023-02-19T23:29:17.853Z,30.00
2023-02-19T23:30:17.913Z,29.56
2023-02-19T23:31:18.018Z,28.32
2023-02-19T23:32:17.952Z,28.27
2023-02-19T23:33:17.992Z,29.35
2023-02-19T23:34:18.047Z,28.74
2023-02-19T23:35:18.088Z,29.12
2023-02-19T23:44:18.430Z,29.02
2023-02-19T23:45:18.466Z,31.43
2023-02-19T23:50:18.667Z,29.93
2023-02-19T23:51:18.710Z,28.15
2023-02-19T23:52:18.758Z,29.13
2023-02-19T23:53:18.796Z,27.98
2023-02-19T23:54:18.827Z,29.03
2023-02-19T23:55:18.879Z,29.46
2023-02-19T23:56:18.913Z,30.01
2023-02-19T23:57:18.958Z,31.53
2023-02-19T23:58:18.998Z,29.52
2023-02-19T23:59:19.045Z,28.89
